Accueil
METAR-TAF:

METAR-TAF

Aéroports :

Buriram, Thaïlande

latitude: 15-13-46N, longitude: 103-15-04E, altitude: 180 m

Observation

Le bulletin a été fait il y a 39 minutes, à 10:00 UTC
Vent 10 kt de sud-ouest, variant entre sud/sud-ouest et ouest
Température 25°C
Humidité 100%
Pression 1008 hPa
Visibilité: 8000 m
Quelques nuages à une hauteur de 2000 ft, Cumulonimbus.
Nuages fragmentés à une hauteur de 3000 ft
Nuages fragmentés à une hauteur de 9000 ft
orage, pluie faible

METAR: VTUO 031000Z 22010KT 200V280 8000 -TSRA FEW020CB BKN030 BKN090 25/25 Q1008 TEMPO FM1020 4000 TSRA

Heure: 17:39 (10:39 UTC)

Prévision

Le bulletin a été fait il y a 5 heures et 39 minutes, à 05:00 UTC
Prévision valable du 03 à 06 UTC au 04 à 06 UTC
Vent 5 kt de sud/sud-ouest
Visibilité 10 km ou plus
Nuages épars à une hauteur de 3000 ft

TAF: VTUO 030500Z 0306/0406 21005KT 9999 SCT030

Observations et prévisions météorologiques de plus de 4000 aéroports (messages METAR et TAF).

Les stations disponibles sont représentées par des disques jaunes et rouges sur la carte.

Passer la souris dessus pour voir le nom de la station.

Cliquer dessus pour voir les observations et prévisions météorologiques.

Pour changer de carte: cliquez sur les boutons verts avec une croix noire pour zoomer, sur le bouton vert avec un tiret pour effectuer un zoom arrière, ou sur les flèches vertes pour les cartes adjacentes.


METAR-TAF: